createdAt,value
2023-04-28T00:01:27.766Z,1.90
2023-04-28T00:03:56.270Z,2.10
2023-04-28T00:06:23.053Z,1.90
2023-04-28T00:08:49.692Z,1.60
2023-04-28T00:11:16.289Z,2.20
2023-04-28T00:13:42.955Z,1.80
2023-04-28T00:16:09.740Z,2.20
2023-04-28T00:18:36.452Z,2.10
2023-04-28T00:21:03.374Z,2.20
2023-04-28T00:23:30.304Z,1.80
2023-04-28T00:25:57.034Z,2.00
2023-04-28T00:28:33.356Z,2.20
2023-04-28T00:31:01.802Z,1.50
2023-04-28T00:33:29.149Z,2.10
2023-04-28T00:36:00.538Z,1.80
2023-04-28T00:38:27.244Z,2.20
2023-04-28T00:40:53.962Z,1.80
2023-04-28T00:43:20.704Z,1.90
2023-04-28T00:45:49.460Z,2.40
2023-04-28T00:48:16.459Z,1.60
2023-04-28T00:50:46.441Z,1.80
2023-04-28T00:53:13.255Z,2.10
2023-04-28T00:55:40.063Z,2.10
2023-04-28T00:58:06.741Z,2.00
2023-04-28T01:00:33.750Z,2.20
2023-04-28T01:03:00.595Z,2.10
2023-04-28T01:05:28.647Z,2.00
2023-04-28T01:07:56.488Z,2.10
2023-04-28T01:10:23.702Z,1.90
2023-04-28T01:12:50.452Z,2.00
2023-04-28T01:15:18.535Z,1.90
2023-04-28T01:17:46.580Z,2.10
2023-04-28T01:20:13.909Z,1.90
2023-04-28T01:22:40.970Z,1.50
2023-04-28T01:25:07.859Z,1.50
2023-04-28T01:27:35.121Z,1.80
2023-04-28T01:30:01.959Z,2.00
2023-04-28T01:32:28.986Z,1.90
2023-04-28T01:34:56.218Z,2.00
2023-04-28T01:37:23.299Z,2.00
2023-04-28T01:39:49.910Z,1.80
2023-04-28T01:42:16.701Z,2.20
2023-04-28T01:44:43.363Z,2.00
2023-04-28T01:47:10.846Z,2.00
2023-04-28T01:49:37.650Z,1.80
2023-04-28T01:52:07.163Z,1.50
2023-04-28T01:54:33.902Z,1.80
2023-04-28T01:57:02.457Z,2.10
2023-04-28T01:59:30.300Z,1.60
2023-04-28T02:01:57.478Z,1.80
2023-04-28T02:04:24.658Z,1.90
2023-04-28T02:06:51.712Z,1.60
2023-04-28T02:09:18.698Z,2.10
2023-04-28T02:11:45.748Z,2.00
2023-04-28T02:14:12.566Z,2.10
2023-04-28T02:16:39.392Z,2.10
2023-04-28T02:19:06.130Z,2.10
2023-04-28T02:21:32.780Z,1.50
2023-04-28T02:23:59.631Z,1.80
2023-04-28T02:26:26.463Z,1.80
2023-04-28T02:28:53.146Z,1.80
2023-04-28T02:31:20.059Z,2.40
2023-04-28T02:33:47.791Z,2.10
2023-04-28T02:36:14.785Z,2.50
2023-04-28T02:38:41.635Z,2.40
2023-04-28T02:41:08.675Z,3.20
2023-04-28T02:43:36.653Z,2.80
2023-04-28T02:46:03.770Z,2.60
2023-04-28T02:48:31.044Z,2.40
2023-04-28T02:50:57.771Z,2.50
2023-04-28T02:53:24.469Z,2.50
2023-04-28T02:55:51.118Z,2.40
2023-04-28T02:58:17.993Z,2.40
2023-04-28T03:00:45.611Z,1.90
2023-04-28T03:03:12.431Z,1.90
2023-04-28T03:05:39.369Z,1.80
2023-04-28T03:08:06.535Z,1.90
2023-04-28T03:10:33.439Z,1.90
2023-04-28T03:13:00.469Z,1.70
2023-04-28T03:15:27.216Z,2.00
2023-04-28T03:17:53.955Z,2.00
2023-04-28T03:20:20.676Z,2.10
2023-04-28T03:22:47.398Z,2.00
2023-04-28T03:25:15.437Z,1.90
2023-04-28T03:27:49.426Z,1.50
2023-04-28T03:30:16.107Z,1.80
2023-04-28T03:32:42.848Z,2.10
2023-04-28T03:35:09.548Z,2.00
2023-04-28T03:37:36.478Z,1.70
2023-04-28T03:40:03.525Z,1.90
2023-04-28T03:42:36.282Z,2.10
2023-04-28T03:45:10.753Z,1.60
2023-04-28T03:47:37.530Z,2.00
2023-04-28T03:50:04.604Z,2.40
2023-04-28T03:52:31.890Z,2.70
2023-04-28T03:54:58.633Z,2.60
2023-04-28T03:57:25.350Z,2.80
2023-04-28T03:59:52.068Z,2.50
2023-04-28T04:02:18.926Z,2.50
2023-04-28T04:04:45.783Z,2.50
2023-04-28T04:07:13.099Z,2.60
2023-04-28T04:09:40.351Z,2.30
2023-04-28T04:12:07.185Z,2.30
2023-04-28T04:14:33.921Z,2.70
2023-04-28T04:17:01.272Z,2.50
2023-04-28T04:19:27.938Z,2.10
2023-04-28T04:21:55.186Z,2.70
2023-04-28T04:24:22.193Z,2.70
2023-04-28T04:26:49.108Z,2.30
2023-04-28T04:32:00.328Z,2.60
2023-04-28T04:34:27.836Z,2.90
2023-04-28T04:36:54.789Z,2.60
2023-04-28T04:39:22.193Z,2.50
2023-04-28T04:41:48.883Z,2.50
2023-04-28T04:44:34.424Z,3.10
2023-04-28T04:47:02.091Z,2.20
2023-04-28T04:49:31.044Z,2.00
2023-04-28T04:51:57.837Z,3.90
2023-04-28T04:54:24.662Z,2.50
2023-04-28T04:56:51.894Z,2.60
2023-04-28T04:59:24.117Z,2.20
2023-04-28T05:02:06.029Z,1.70
2023-04-28T05:04:32.904Z,1.60
2023-04-28T05:07:00.224Z,1.80
2023-04-28T05:09:27.144Z,1.70
2023-04-28T05:11:53.908Z,2.10
2023-04-28T05:14:20.592Z,2.00
2023-04-28T05:16:47.276Z,2.10
2023-04-28T05:19:22.917Z,2.20
2023-04-28T05:21:52.042Z,2.00
2023-04-28T05:24:22.984Z,2.00
2023-04-28T05:26:51.391Z,2.10
2023-04-28T05:29:20.086Z,2.10
2023-04-28T05:31:46.835Z,1.90
2023-04-28T05:34:14.085Z,1.90
2023-04-28T05:36:41.210Z,2.70
2023-04-28T05:39:10.399Z,1.90
2023-04-28T05:41:38.293Z,2.10
2023-04-28T05:44:05.715Z,1.80
2023-04-28T05:46:33.395Z,1.90
2023-04-28T05:49:00.668Z,2.00
2023-04-28T05:51:33.130Z,2.10
2023-04-28T05:54:00.051Z,2.50
2023-04-28T05:56:28.366Z,2.60
2023-04-28T05:58:55.553Z,2.50
2023-04-28T06:01:22.437Z,2.10
2023-04-28T06:03:50.415Z,2.30
2023-04-28T06:06:17.414Z,2.30
2023-04-28T06:08:47.108Z,1.80
2023-04-28T06:11:13.845Z,1.80
2023-04-28T06:13:41.351Z,2.00
2023-04-28T06:16:08.101Z,2.20
2023-04-28T06:18:35.259Z,2.10
2023-04-28T06:21:02.971Z,1.50
2023-04-28T06:23:29.705Z,1.70
2023-04-28T06:25:56.513Z,1.80
2023-04-28T06:28:23.391Z,2.10
2023-04-28T06:30:53.337Z,1.50
2023-04-28T06:33:20.394Z,1.70
2023-04-28T06:35:47.108Z,1.80
2023-04-28T06:38:15.409Z,1.50
2023-04-28T06:40:42.273Z,1.40
2023-04-28T06:43:09.104Z,1.50
2023-04-28T06:45:41.233Z,1.60
2023-04-28T06:48:08.395Z,1.40
2023-04-28T06:50:38.303Z,1.60
2023-04-28T06:53:07.211Z,1.40
2023-04-28T06:55:34.117Z,1.40
2023-04-28T06:58:00.918Z,1.50
2023-04-28T07:00:27.604Z,1.90
2023-04-28T07:02:54.590Z,1.50
2023-04-28T07:05:21.582Z,1.80
2023-04-28T07:07:48.386Z,1.70
2023-04-28T07:10:15.877Z,1.70
2023-04-28T07:12:43.289Z,1.60
2023-04-28T07:15:11.553Z,1.60
2023-04-28T07:17:38.396Z,1.40
2023-04-28T07:20:06.533Z,1.70
2023-04-28T07:22:33.681Z,1.20
2023-04-28T07:25:00.507Z,1.60
2023-04-28T07:27:27.179Z,1.90
2023-04-28T07:29:53.970Z,1.60
2023-04-28T07:32:21.383Z,1.40
2023-04-28T07:34:48.208Z,1.60
2023-04-28T07:37:14.915Z,1.80
2023-04-28T07:39:41.845Z,1.60
2023-04-28T07:42:09.386Z,1.80
2023-04-28T07:44:36.120Z,1.60
2023-04-28T07:47:03.861Z,1.90
2023-04-28T07:49:30.778Z,1.60
2023-04-28T07:51:57.483Z,1.50
2023-04-28T07:54:24.521Z,1.40
2023-04-28T07:56:51.435Z,1.30
2023-04-28T07:59:18.180Z,1.30
2023-04-28T08:01:44.998Z,1.40
2023-04-28T08:04:12.216Z,1.70
2023-04-28T08:06:39.603Z,2.20
2023-04-28T08:09:06.601Z,1.40
2023-04-28T08:11:34.153Z,1.40
2023-04-28T08:14:02.406Z,1.70
2023-04-28T08:16:29.706Z,1.60
2023-04-28T08:18:56.814Z,1.00
2023-04-28T08:21:23.672Z,1.40
2023-04-28T08:23:50.443Z,1.60
2023-04-28T08:26:17.204Z,1.70
2023-04-28T08:28:44.188Z,1.70
2023-04-28T08:31:11.099Z,2.00
2023-04-28T08:33:38.572Z,1.30
2023-04-28T08:36:05.884Z,1.30
2023-04-28T08:38:32.808Z,1.50
2023-04-28T08:40:59.611Z,1.70
2023-04-28T08:43:27.990Z,1.60
2023-04-28T08:45:54.898Z,1.80
2023-04-28T08:48:22.113Z,1.90
2023-04-28T08:50:50.759Z,2.00
2023-04-28T08:53:24.743Z,1.90
2023-04-28T08:55:56.573Z,1.30
2023-04-28T08:58:25.527Z,1.50
2023-04-28T09:00:53.126Z,1.40
2023-04-28T09:03:20.241Z,1.40
2023-04-28T09:05:47.301Z,1.20
2023-04-28T09:08:14.449Z,1.50
2023-04-28T09:10:41.288Z,1.50
2023-04-28T09:13:08.449Z,1.40
2023-04-28T09:15:46.329Z,1.30
2023-04-28T09:18:15.177Z,1.20
2023-04-28T09:20:42.090Z,1.50
2023-04-28T09:23:27.796Z,1.20
2023-04-28T09:26:07.918Z,1.30
2023-04-28T09:28:35.904Z,1.30
2023-04-28T09:31:03.575Z,1.60
2023-04-28T09:33:30.914Z,1.60
2023-04-28T09:35:57.960Z,1.30
2023-04-28T09:38:25.560Z,1.80
2023-04-28T09:41:00.480Z,1.70
2023-04-28T09:43:31.904Z,1.50
2023-04-28T09:46:01.005Z,1.40
2023-04-28T09:48:32.359Z,1.60
2023-04-28T09:51:00.508Z,1.30
2023-04-28T09:53:27.680Z,1.30
2023-04-28T09:55:55.592Z,1.40
2023-04-28T09:58:23.183Z,1.70
2023-04-28T10:00:55.048Z,2.20
2023-04-28T10:03:24.625Z,2.10
2023-04-28T10:05:53.506Z,1.50
2023-04-28T10:08:21.532Z,1.40
2023-04-28T10:10:54.946Z,1.50
2023-04-28T10:13:24.366Z,1.40
2023-04-28T10:15:55.244Z,1.50
2023-04-28T10:18:22.952Z,1.40
2023-04-28T10:20:52.930Z,1.80
2023-04-28T10:23:41.264Z,1.30
2023-04-28T10:26:12.027Z,1.80
2023-04-28T10:28:45.256Z,1.80
2023-04-28T10:31:13.360Z,1.30
2023-04-28T10:33:40.638Z,1.40
2023-04-28T10:36:07.616Z,1.30
2023-04-28T10:38:35.330Z,1.10
2023-04-28T10:41:02.809Z,1.50
2023-04-28T10:43:32.679Z,1.50
2023-04-28T10:46:03.344Z,1.30
2023-04-28T10:48:33.110Z,1.20
2023-04-28T10:51:03.128Z,1.60
2023-04-28T10:53:42.966Z,1.40
2023-04-28T10:56:18.452Z,1.40
2023-04-28T10:58:46.333Z,1.50
2023-04-28T11:01:25.180Z,1.60
2023-04-28T11:04:07.549Z,1.20
2023-04-28T11:06:42.237Z,1.10
2023-04-28T11:09:12.183Z,1.50
2023-04-28T11:11:39.714Z,1.30
2023-04-28T11:14:18.774Z,1.20
2023-04-28T11:17:02.343Z,1.60
2023-04-28T11:19:30.692Z,1.20
2023-04-28T11:21:58.984Z,1.00
2023-04-28T11:24:28.302Z,1.00
2023-04-28T11:26:55.934Z,1.60
2023-04-28T11:29:35.880Z,1.60
2023-04-28T11:32:03.963Z,1.60
2023-04-28T11:34:31.041Z,1.40
2023-04-28T11:36:57.937Z,1.30
2023-04-28T11:39:30.059Z,1.70
2023-04-28T11:42:01.689Z,1.60
2023-04-28T11:44:53.786Z,1.60
2023-04-28T11:47:33.786Z,1.20
2023-04-28T11:50:01.493Z,1.60
2023-04-28T11:52:28.588Z,1.20
2023-04-28T11:55:00.506Z,1.10
2023-04-28T11:57:27.790Z,1.30
2023-04-28T12:00:14.351Z,1.40
2023-04-28T12:02:41.709Z,1.10
2023-04-28T12:05:10.334Z,1.10
2023-04-28T12:07:42.122Z,1.10
2023-04-28T12:10:12.924Z,1.20
2023-04-28T12:12:49.826Z,1.10
2023-04-28T12:15:20.462Z,1.20
2023-04-28T12:17:48.751Z,1.50
2023-04-28T12:20:36.102Z,1.60
2023-04-28T12:23:03.041Z,1.40
2023-04-28T12:25:30.217Z,1.10
2023-04-28T12:28:04.176Z,1.50
2023-04-28T12:30:32.686Z,1.10
2023-04-28T12:32:59.439Z,1.00
2023-04-28T12:35:26.875Z,1.10
2023-04-28T12:37:54.878Z,1.60
2023-04-28T12:40:22.383Z,1.30
2023-04-28T12:42:50.079Z,1.20
2023-04-28T12:45:16.792Z,1.00
2023-04-28T12:47:43.681Z,1.10
2023-04-28T12:50:10.468Z,1.30
2023-04-28T12:52:37.650Z,1.20
2023-04-28T12:55:04.829Z,1.20
2023-04-28T12:57:31.982Z,1.30
2023-04-28T12:59:58.691Z,1.30
2023-04-28T13:02:26.176Z,2.80
2023-04-28T13:05:01.371Z,1.90
2023-04-28T13:07:29.718Z,1.60
2023-04-28T13:09:56.382Z,1.80
2023-04-28T13:12:24.152Z,1.50
2023-04-28T13:14:50.958Z,1.60
2023-04-28T13:17:18.185Z,1.40
2023-04-28T13:19:45.340Z,1.20
2023-04-28T13:22:12.761Z,1.60
2023-04-28T13:24:39.422Z,2.00
2023-04-28T13:27:09.085Z,1.50
2023-04-28T13:29:36.338Z,1.80
2023-04-28T13:32:04.849Z,1.60
2023-04-28T13:34:32.280Z,1.60
2023-04-28T13:36:58.907Z,1.80
2023-04-28T13:39:25.579Z,2.00
2023-04-28T13:41:52.363Z,2.00
2023-04-28T13:44:19.017Z,1.70
2023-04-28T13:46:45.765Z,2.00
2023-04-28T13:49:12.737Z,1.60
2023-04-28T13:51:39.511Z,1.40
2023-04-28T13:54:10.798Z,1.70
2023-04-28T13:56:37.706Z,2.20
2023-04-28T13:59:04.441Z,2.00
2023-04-28T14:01:31.665Z,1.60
2023-04-28T14:03:58.709Z,1.70
2023-04-28T14:06:26.725Z,1.40
2023-04-28T14:08:53.395Z,1.40
2023-04-28T14:11:21.018Z,1.10
2023-04-28T14:13:47.606Z,1.30
2023-04-28T14:16:14.334Z,1.00
2023-04-28T14:18:41.129Z,1.00
2023-04-28T14:21:08.214Z,1.60
2023-04-28T14:23:35.177Z,2.00
2023-04-28T14:26:03.564Z,1.60
2023-04-28T14:28:30.227Z,1.80
2023-04-28T14:30:56.976Z,1.20
2023-04-28T14:33:24.049Z,1.50
2023-04-28T14:35:50.636Z,1.50
2023-04-28T14:38:18.025Z,1.70
2023-04-28T14:40:45.107Z,1.70
2023-04-28T14:43:13.250Z,1.40
2023-04-28T14:45:40.293Z,1.60
2023-04-28T14:48:12.843Z,2.10
2023-04-28T14:50:42.315Z,1.70
2023-04-28T14:53:09.183Z,2.70
2023-04-28T14:55:36.462Z,1.60
2023-04-28T14:58:03.940Z,1.60
2023-04-28T15:00:31.996Z,1.20
2023-04-28T15:02:59.103Z,1.50
2023-04-28T15:05:26.609Z,1.60
2023-04-28T15:07:54.297Z,1.50
2023-04-28T15:10:21.773Z,1.50
2023-04-28T15:12:48.859Z,1.80
2023-04-28T15:15:15.590Z,1.30
2023-04-28T15:17:45.376Z,1.70
2023-04-28T15:20:12.270Z,2.60
2023-04-28T15:22:44.140Z,1.50
2023-04-28T15:25:11.250Z,2.00
2023-04-28T15:27:40.127Z,1.30
2023-04-28T15:30:10.209Z,1.40
2023-04-28T15:32:37.626Z,1.80
2023-04-28T15:35:04.960Z,2.20
2023-04-28T15:37:38.882Z,2.00
2023-04-28T15:40:06.440Z,1.90
2023-04-28T15:42:33.526Z,2.50
2023-04-28T15:45:01.909Z,2.20
2023-04-28T15:47:30.368Z,1.70
2023-04-28T15:49:58.655Z,1.90
2023-04-28T15:52:26.561Z,1.70
2023-04-28T15:54:54.577Z,1.40
2023-04-28T15:57:21.478Z,1.60
2023-04-28T15:59:48.194Z,1.90
2023-04-28T16:02:15.116Z,2.20
2023-04-28T16:04:42.108Z,1.30
2023-04-28T16:07:08.833Z,1.40
2023-04-28T16:09:35.828Z,1.10
2023-04-28T16:12:03.586Z,1.40
2023-04-28T16:14:30.681Z,1.30
2023-04-28T16:16:57.784Z,1.30
2023-04-28T16:19:25.353Z,1.60
2023-04-28T16:21:52.085Z,1.80
2023-04-28T16:24:21.595Z,1.30
2023-04-28T16:26:48.330Z,1.50
2023-04-28T16:29:15.017Z,1.50
2023-04-28T16:31:41.738Z,1.60
2023-04-28T16:34:08.750Z,1.30
2023-04-28T16:36:35.723Z,2.80
2023-04-28T16:39:02.313Z,3.30
2023-04-28T16:41:29.207Z,2.30
2023-04-28T16:43:56.062Z,2.20
2023-04-28T16:46:22.869Z,1.40
2023-04-28T16:48:49.530Z,1.30
2023-04-28T16:51:16.212Z,1.40
2023-04-28T16:53:43.114Z,1.60
2023-04-28T16:56:10.794Z,1.40
2023-04-28T16:58:38.326Z,1.40
2023-04-28T17:01:05.182Z,1.50
2023-04-28T17:03:33.168Z,1.70
2023-04-28T17:06:00.390Z,1.70
2023-04-28T17:08:27.021Z,1.10
2023-04-28T17:10:53.807Z,1.50
2023-04-28T17:13:20.501Z,1.80
2023-04-28T17:15:53.823Z,1.60
2023-04-28T17:18:20.773Z,1.40
2023-04-28T17:20:47.725Z,1.30
2023-04-28T17:23:14.842Z,1.30
2023-04-28T17:25:41.606Z,1.30
2023-04-28T17:28:08.309Z,1.20
2023-04-28T17:30:35.556Z,1.30
2023-04-28T17:33:02.799Z,1.40
2023-04-28T17:35:29.972Z,1.50
2023-04-28T17:37:56.627Z,1.40
2023-04-28T17:40:23.626Z,1.20
2023-04-28T17:42:51.123Z,1.80
2023-04-28T17:45:17.811Z,1.80
2023-04-28T17:47:44.591Z,1.90
2023-04-28T17:50:11.319Z,1.60
2023-04-28T17:52:38.336Z,1.50
2023-04-28T17:55:05.604Z,1.80
2023-04-28T17:57:32.458Z,2.00
2023-04-28T17:59:59.242Z,1.60
2023-04-28T18:02:26.181Z,2.00
2023-04-28T18:04:53.056Z,1.90
2023-04-28T18:07:20.102Z,2.30
2023-04-28T18:09:46.722Z,2.10
2023-04-28T18:12:13.686Z,2.30
2023-04-28T18:14:43.614Z,2.40
2023-04-28T18:17:10.555Z,2.30
2023-04-28T18:19:37.249Z,2.30
2023-04-28T18:22:03.913Z,2.60
2023-04-28T18:24:31.042Z,2.50
2023-04-28T18:26:57.736Z,2.20
2023-04-28T18:29:24.634Z,2.10
2023-04-28T18:31:51.450Z,2.20
2023-04-28T18:34:18.416Z,2.40
2023-04-28T18:36:45.258Z,2.10
2023-04-28T18:39:11.946Z,2.10
2023-04-28T18:41:39.642Z,2.10
2023-04-28T18:44:06.355Z,2.10
2023-04-28T18:46:33.320Z,2.30
2023-04-28T18:49:02.525Z,2.10
2023-04-28T18:51:29.544Z,2.30
2023-04-28T18:53:56.178Z,2.40
2023-04-28T18:56:23.991Z,2.50
2023-04-28T18:58:50.724Z,2.60
2023-04-28T19:01:17.463Z,2.10
2023-04-28T19:03:44.418Z,2.10
2023-04-28T19:06:12.267Z,2.60
2023-04-28T19:08:39.268Z,2.50
2023-04-28T19:11:06.647Z,2.60
2023-04-28T19:13:37.232Z,2.40
2023-04-28T19:16:04.418Z,2.10
2023-04-28T19:18:31.592Z,2.00
2023-04-28T19:21:00.161Z,2.20
2023-04-28T19:23:27.801Z,2.00
2023-04-28T19:25:56.241Z,2.10
2023-04-28T19:28:25.268Z,1.60
2023-04-28T19:30:55.900Z,2.00
2023-04-28T19:33:23.917Z,1.80
2023-04-28T19:35:55.193Z,1.80
2023-04-28T19:38:22.598Z,2.00
2023-04-28T19:40:50.347Z,1.70
2023-04-28T19:43:17.491Z,1.70
2023-04-28T19:45:45.968Z,1.90
2023-04-28T19:48:13.889Z,2.00
2023-04-28T19:50:41.395Z,1.50
2023-04-28T19:53:08.728Z,1.70
2023-04-28T19:55:36.455Z,1.40
2023-04-28T19:58:03.414Z,1.20
2023-04-28T20:00:31.749Z,1.50
2023-04-28T20:02:59.308Z,2.20
2023-04-28T20:05:26.071Z,1.60
2023-04-28T20:07:55.368Z,1.80
2023-04-28T20:10:23.476Z,1.40
2023-04-28T20:12:50.205Z,2.00
2023-04-28T20:15:17.475Z,1.70
2023-04-28T20:17:44.283Z,1.70
2023-04-28T20:20:11.312Z,2.00
2023-04-28T20:22:40.117Z,2.10
2023-04-28T20:25:09.453Z,1.70
2023-04-28T20:27:36.350Z,2.20
2023-04-28T20:30:03.319Z,2.30
2023-04-28T20:32:30.647Z,2.30
2023-04-28T20:34:57.351Z,1.90
2023-04-28T20:37:25.303Z,1.90
2023-04-28T20:39:52.657Z,2.00
2023-04-28T20:42:19.433Z,1.70
2023-04-28T20:44:46.034Z,1.80
2023-04-28T20:47:12.928Z,2.00
2023-04-28T20:49:39.959Z,1.80
2023-04-28T20:52:06.615Z,1.90
2023-04-28T20:54:35.409Z,1.40
2023-04-28T20:57:03.941Z,1.80
2023-04-28T20:59:32.432Z,2.00
2023-04-28T21:01:59.816Z,2.00
2023-04-28T21:04:27.424Z,1.80
2023-04-28T21:06:54.029Z,1.70
2023-04-28T21:09:24.455Z,1.60
2023-04-28T21:11:51.420Z,1.80
2023-04-28T21:14:18.154Z,1.70
2023-04-28T21:16:44.985Z,1.90
2023-04-28T21:19:11.712Z,2.00
2023-04-28T21:21:38.359Z,1.60
2023-04-28T21:24:05.449Z,1.60
2023-04-28T21:26:32.379Z,2.10
2023-04-28T21:28:59.346Z,1.50
2023-04-28T21:31:26.176Z,1.80
2023-04-28T21:33:52.900Z,1.90
2023-04-28T21:36:19.550Z,1.70
2023-04-28T21:38:46.219Z,1.80
2023-04-28T21:41:12.949Z,1.70
2023-04-28T21:43:40.009Z,1.60
2023-04-28T21:46:06.893Z,1.90
2023-04-28T21:48:33.832Z,1.80
2023-04-28T21:51:00.724Z,1.70
2023-04-28T21:53:28.203Z,1.70
2023-04-28T21:55:54.963Z,1.50
2023-04-28T21:58:21.736Z,1.40
2023-04-28T22:00:48.443Z,1.40
2023-04-28T22:03:15.501Z,1.60
2023-04-28T22:05:43.212Z,1.50
2023-04-28T22:08:10.284Z,1.10
2023-04-28T22:10:37.009Z,1.40
2023-04-28T22:13:04.586Z,1.50
2023-04-28T22:15:31.544Z,1.80
2023-04-28T22:17:58.339Z,1.40
2023-04-28T22:20:25.051Z,1.70
2023-04-28T22:22:51.964Z,1.70
2023-04-28T22:25:19.061Z,1.50
2023-04-28T22:27:45.784Z,1.40
2023-04-28T22:30:12.925Z,1.90
2023-04-28T22:32:43.767Z,1.90
2023-04-28T22:35:13.990Z,1.20
2023-04-28T22:37:40.620Z,1.50
2023-04-28T22:40:08.220Z,1.50
2023-04-28T22:42:39.082Z,1.50
2023-04-28T22:45:06.112Z,1.40
2023-04-28T22:47:33.620Z,1.40
2023-04-28T22:50:00.398Z,1.70
2023-04-28T22:52:27.184Z,1.40
2023-04-28T22:54:53.874Z,1.60
2023-04-28T22:57:20.550Z,1.70
2023-04-28T22:59:47.303Z,1.50
2023-04-28T23:02:13.948Z,1.40
2023-04-28T23:04:40.774Z,1.40
2023-04-28T23:07:07.778Z,1.60
2023-04-28T23:09:36.482Z,1.70
2023-04-28T23:12:03.590Z,1.80
2023-04-28T23:14:32.570Z,1.80
2023-04-28T23:16:59.239Z,1.90
2023-04-28T23:19:25.928Z,1.70
2023-04-28T23:21:53.758Z,1.20
2023-04-28T23:24:20.382Z,1.60
2023-04-28T23:26:47.343Z,1.50
2023-04-28T23:29:13.918Z,1.30
2023-04-28T23:31:40.620Z,1.50
2023-04-28T23:34:07.753Z,1.80
2023-04-28T23:36:35.182Z,1.40
2023-04-28T23:39:01.822Z,1.50
2023-04-28T23:41:28.836Z,1.50
2023-04-28T23:43:56.045Z,1.60
2023-04-28T23:46:22.665Z,1.50
2023-04-28T23:48:49.302Z,1.40
2023-04-28T23:51:15.946Z,1.70
2023-04-28T23:53:42.852Z,1.30
2023-04-28T23:56:09.587Z,1.70
2023-04-28T23:58:37.830Z,1.50
